»·PEaware :: UAL1399 KLAS-KLAX

UAL1399 :: KLAS-KLAX

FLIGHT INFORMATION

Flight Status: Arrived
Operator:
United Airlines
More flights by this operator :: More flights under this callsign
Pilot: David C. (16084)
Aircraft: AIRBUS A320
(A320)
More flights by this aircraft type
Origin: KLAS McCarran Intl
United States
Destination: KLAX Los Angeles Intl
United States
More flights between these airports :: More routes between these airports
Route: BOACH8 RIKII SHTNR ANJLL4
File this flight plan on PilotEdge
Remarks:
Altitude:
(Current/Filed)
28,000ft
Speed:
(Current/Filed)
503kts
Departed: 06-Aug-18 06:03 PM
Arrived: 06-Aug-18 06:48 PM
Distance/Time
Traveled:
205nm/0:45
Distance/Time
To Go:
Arrived

Flight Plot

Page will automatically refresh every two minutes.

Flight plan parsing failed; only flown route is shown


Map Options




Map Legend


Flown Route
Filed Route
Departure Airport
Arrival Airport
Navaid (VOR, NDB)
Fix

Horizontal Profiles

Position Reports

Time Latitude Longitude Heading Altitude Ground
Speed
06-Aug-18 17:31 36.080830 -115.140136 129 2190ft 0kts
06-Aug-18 17:32 36.080830 -115.140136 129 2190ft 0kts
06-Aug-18 17:33 36.080830 -115.140136 129 2190ft 0kts
06-Aug-18 17:34 36.080830 -115.140136 129 2190ft 0kts
06-Aug-18 17:35 36.080830 -115.140136 129 2190ft 0kts
06-Aug-18 17:36 36.080830 -115.140136 129 2190ft 0kts
06-Aug-18 17:37 36.080830 -115.140136 129 2190ft 0kts
06-Aug-18 17:38 36.080830 -115.140136 129 2190ft 0kts
06-Aug-18 17:39 36.080830 -115.140136 129 2190ft 0kts
06-Aug-18 17:40 36.080830 -115.140136 129 2190ft 0kts
06-Aug-18 17:41 36.080830 -115.140136 129 2190ft 0kts
06-Aug-18 17:42 36.080830 -115.140136 129 2190ft 0kts
06-Aug-18 17:43 36.080830 -115.140136 129 2190ft 0kts
06-Aug-18 17:44 36.080830 -115.140136 129 2190ft 0kts
06-Aug-18 17:45 36.080830 -115.140136 129 2190ft 0kts
06-Aug-18 17:46 36.080830 -115.140136 129 2190ft 0kts
06-Aug-18 17:47 36.080830 -115.140136 129 2190ft 0kts
06-Aug-18 17:48 36.080995 -115.140295 123 2190ft 2kts
06-Aug-18 17:49 36.081482 -115.140607 193 2190ft 2kts
06-Aug-18 17:50 36.081737 -115.140400 228 2190ft 0kts
06-Aug-18 17:51 36.081737 -115.140400 229 2190ft 0kts
06-Aug-18 17:52 36.081737 -115.140400 229 2190ft 0kts
06-Aug-18 17:53 36.081737 -115.140400 229 2190ft 0kts
06-Aug-18 17:54 36.081737 -115.140400 229 2190ft 0kts
06-Aug-18 17:55 36.081737 -115.140400 229 2190ft 0kts
06-Aug-18 17:56 36.081737 -115.140400 229 2190ft 0kts
06-Aug-18 17:57 36.081114 -115.141278 226 2190ft 13kts
06-Aug-18 17:58 36.077516 -115.143127 261 2190ft 17kts
06-Aug-18 17:59 36.077996 -115.150138 274 2190ft 21kts
06-Aug-18 18:00 36.078029 -115.157797 270 2190ft 23kts
06-Aug-18 18:01 36.077369 -115.161264 178 2190ft 0kts
06-Aug-18 18:02 36.077369 -115.161264 178 2190ft 0kts
06-Aug-18 18:03 36.076393 -115.160413 91 2190ft 18kts
06-Aug-18 18:04 36.076526 -115.114901 89 3042ft 195kts
06-Aug-18 18:05 36.076188 -115.040199 89 5422ft 233kts
06-Aug-18 18:06 36.072422 -114.960205 120 7223ft 237kts
06-Aug-18 18:07 36.011879 -114.923307 160 9395ft 271kts
06-Aug-18 18:08 35.937013 -114.931219 223 11854ft 304kts
06-Aug-18 18:09 35.875717 -115.007111 224 14438ft 326kts
06-Aug-18 18:10 35.812079 -115.088471 230 17096ft 337kts
06-Aug-18 18:11 35.752908 -115.179839 230 19558ft 347kts
06-Aug-18 18:12 35.691318 -115.272740 221 21853ft 356kts
06-Aug-18 18:13 35.595286 -115.298372 183 23879ft 370kts
06-Aug-18 18:14 35.492955 -115.311333 209 25729ft 376kts
06-Aug-18 18:15 35.402320 -115.376855 212 27488ft 384kts
06-Aug-18 18:16 35.307340 -115.445834 212 27984ft 420kts
06-Aug-18 18:17 35.202782 -115.521536 212 27970ft 458kts
06-Aug-18 18:18 35.098151 -115.611775 227 27953ft 464kts
06-Aug-18 18:19 35.009599 -115.724969 226 27991ft 464kts
06-Aug-18 18:20 34.920346 -115.838634 226 27981ft 466kts
06-Aug-18 18:21 34.831384 -115.951570 226 27988ft 469kts
06-Aug-18 18:22 34.740999 -116.066236 226 28010ft 470kts
06-Aug-18 18:23 34.650843 -116.181018 226 28004ft 470kts
06-Aug-18 18:24 34.560747 -116.295284 226 27992ft 469kts
06-Aug-18 18:25 34.470656 -116.409155 226 27955ft 470kts
06-Aug-18 18:26 34.393415 -116.533920 243 27055ft 464kts
06-Aug-18 18:27 34.339045 -116.665747 242 26096ft 418kts
06-Aug-18 18:28 34.291738 -116.783033 243 24259ft 402kts
06-Aug-18 18:29 34.243965 -116.901617 242 22232ft 389kts
06-Aug-18 18:30 34.201472 -117.018623 250 20215ft 378kts
06-Aug-18 18:31 34.169807 -117.135671 250 18269ft 367kts
06-Aug-18 18:32 34.138234 -117.250770 250 16336ft 357kts
06-Aug-18 18:33 34.107532 -117.362033 251 14462ft 347kts
06-Aug-18 18:34 34.079951 -117.471401 252 12736ft 334kts
06-Aug-18 18:35 34.048369 -117.567272 246 11577ft 279kts
06-Aug-18 18:36 34.019837 -117.646445 246 10750ft 243kts
06-Aug-18 18:37 34.002891 -117.722924 262 9780ft 239kts
06-Aug-18 18:38 33.995325 -117.801089 262 8567ft 233kts
06-Aug-18 18:39 33.987832 -117.877979 262 7409ft 229kts
06-Aug-18 18:40 33.980553 -117.952148 262 6243ft 219kts
06-Aug-18 18:41 33.973508 -118.023206 262 5049ft 212kts
06-Aug-18 18:42 33.966633 -118.092317 263 3907ft 205kts
06-Aug-18 18:43 33.960730 -118.159699 262 3778ft 203kts
06-Aug-18 18:44 33.954289 -118.219363 262 2797ft 175kts
06-Aug-18 18:45 33.948350 -118.276550 262 1896ft 165kts
06-Aug-18 18:46 33.943084 -118.327312 262 1061ft 134kts
06-Aug-18 18:47 33.938589 -118.371034 262 367ft 131kts
06-Aug-18 18:48 33.935312 -118.402508 265 136ft 42kts
06-Aug-18 18:49 33.936792 -118.408977 349 136ft 19kts
06-Aug-18 18:50 33.937483 -118.409074 353 136ft 0kts
06-Aug-18 18:51 33.938198 -118.405569 82 136ft 23kts
06-Aug-18 18:52 33.939094 -118.398143 28 136ft 10kts
06-Aug-18 18:53 33.941328 -118.397688 82 136ft 2kts
06-Aug-18 18:54 33.941333 -118.397634 83 136ft 0kts
06-Aug-18 18:55 33.941333 -118.397634 83 136ft 0kts

Navigation Log

Ident Type
Flight plan parsing failed, navigation log unavailable